Time;durP1;ratioP1;P1;durP2;ratioP2;P2;SDS_P1;SDS_P2;PMS_P1;PMS_P2;Temp;Humidity;BMP_temperature;BMP_pressure;BME280_temperature;BME280_humidity;BME280_pressure;Samples;Min_cycle;Max_cycle;Signal;HPM_P1;HPM_P2
2022/12/04 00:00:13;;;;;;;62.03;37.22;;;1.30;99.90;;;;;;5053637;28;20045;-74
2022/12/04 00:02:39;;;;;;;63.58;39.13;;;1.40;99.90;;;;;;5056592;28;20533;-74
2022/12/04 00:05:07;;;;;;;60.30;37.83;;;1.30;99.90;;;;;;5051760;28;20044;-74
2022/12/04 00:07:33;;;;;;;59.50;35.55;;;1.30;99.90;;;;;;5060763;28;20033;-74
2022/12/04 00:09:59;;;;;;;69.28;40.00;;;1.30;99.90;;;;;;5071319;28;20097;-74
2022/12/04 00:12:25;;;;;;;71.55;40.28;;;1.20;99.90;;;;;;5051995;28;20041;-73
2022/12/04 00:14:50;;;;;;;63.10;37.78;;;1.20;99.90;;;;;;5063685;28;20071;-74
2022/12/04 00:17:16;;;;;;;67.93;37.80;;;1.20;99.90;;;;;;5060947;28;20044;-74
2022/12/04 00:19:41;;;;;;;66.45;39.65;;;1.20;99.90;;;;;;5054284;28;20437;-74
2022/12/04 00:22:07;;;;;;;125.78;84.40;;;1.30;99.90;;;;;;5060543;28;20502;-74
2022/12/04 00:24:33;;;;;;;76.07;47.95;;;1.30;99.90;;;;;;5064072;28;20539;-73
2022/12/04 00:26:59;;;;;;;63.65;39.00;;;1.30;99.90;;;;;;5064031;28;20052;-74
2022/12/04 00:29:25;;;;;;;60.78;36.42;;;1.20;99.90;;;;;;5064502;28;20059;-74
2022/12/04 00:31:51;;;;;;;60.38;37.55;;;1.30;99.90;;;;;;5076523;28;20045;-74
2022/12/04 00:34:16;;;;;;;61.58;38.20;;;1.30;99.90;;;;;;5056454;28;20036;-74
2022/12/04 00:36:42;;;;;;;64.72;38.88;;;1.20;99.90;;;;;;5065315;28;20052;-74
2022/12/04 00:39:08;;;;;;;61.05;38.47;;;1.20;99.90;;;;;;5065395;28;20495;-74
2022/12/04 00:41:34;;;;;;;63.70;38.78;;;1.20;99.90;;;;;;5079028;28;20376;-74
2022/12/04 00:44:01;;;;;;;62.33;37.92;;;1.20;99.90;;;;;;5066986;28;20044;-74
2022/12/04 00:46:27;;;;;;;66.43;39.22;;;1.20;99.90;;;;;;5062592;28;20063;-74
2022/12/04 00:48:53;;;;;;;65.10;39.00;;;1.20;99.90;;;;;;5059438;28;20048;-74
2022/12/04 00:51:22;;;;;;;70.70;40.60;;;1.20;99.90;;;;;;5060665;28;20535;-74
2022/12/04 00:53:49;;;;;;;62.00;38.33;;;1.20;99.90;;;;;;5065947;28;20052;-74
2022/12/04 00:56:21;;;;;;;64.63;38.13;;;1.20;99.90;;;;;;5062186;28;20555;-74
2022/12/04 00:58:50;;;;;;;69.15;39.33;;;1.20;99.90;;;;;;5065539;28;20060;-73
2022/12/04 01:01:19;;;;;;;76.35;42.58;;;1.20;99.90;;;;;;5066545;28;20128;-74
2022/12/04 01:03:44;;;;;;;75.47;42.75;;;1.20;99.90;;;;;;5063150;28;20036;-74
2022/12/04 01:06:37;;;;;;;71.05;41.00;;;1.30;99.90;;;;;;5077538;28;20083;-74
2022/12/04 01:09:04;;;;;;;64.40;39.13;;;1.30;99.90;;;;;;5062083;28;20075;-74
2022/12/04 01:11:30;;;;;;;61.10;38.30;;;1.30;99.90;;;;;;5079923;28;20048;-74
2022/12/04 01:13:56;;;;;;;63.58;38.65;;;1.20;99.90;;;;;;5060827;28;20067;-73
2022/12/04 01:16:25;;;;;;;69.30;40.05;;;1.20;99.90;;;;;;5066092;28;20040;-74
2022/12/04 01:18:51;;;;;;;62.55;37.83;;;1.30;99.90;;;;;;5074125;28;20041;-74
2022/12/04 01:21:18;;;;;;;69.07;40.53;;;1.30;99.90;;;;;;5055706;28;20036;-74
2022/12/04 01:23:44;;;;;;;65.20;38.47;;;1.20;99.90;;;;;;5091631;28;20079;-74
2022/12/04 01:26:11;;;;;;;70.60;42.38;;;1.20;99.90;;;;;;5058994;28;20044;-74
2022/12/04 01:28:37;;;;;;;74.78;41.55;;;1.20;99.90;;;;;;5063983;28;20508;-74
2022/12/04 01:31:07;;;;;;;67.35;39.85;;;1.30;99.90;;;;;;5065196;28;20126;-74
2022/12/04 01:33:34;;;;;;;62.50;37.85;;;1.30;99.90;;;;;;5060787;28;20032;-73
2022/12/04 01:36:01;;;;;;;;;;;1.20;99.90;;;;;;5068946;28;20047;-74
2022/12/04 01:38:27;;;;;;;67.15;38.10;;;1.20;99.90;;;;;;5064018;28;19971;-74
2022/12/04 01:40:54;;;;;;;68.00;38.08;;;1.20;99.90;;;;;;5057248;28;20383;-74
2022/12/04 01:43:20;;;;;;;66.05;39.75;;;1.20;99.90;;;;;;5059357;28;20039;-74
2022/12/04 01:45:54;;;;;;;68.53;41.05;;;1.20;99.90;;;;;;5055526;28;20044;-74
2022/12/04 01:48:21;;;;;;;64.78;38.85;;;1.20;99.90;;;;;;5060395;28;20033;-74
2022/12/04 01:50:50;;;;;;;69.47;40.83;;;1.20;99.90;;;;;;5065249;28;20044;-74
2022/12/04 01:53:17;;;;;;;69.18;40.70;;;1.20;99.90;;;;;;5063973;28;20729;-74
2022/12/04 01:55:44;;;;;;;64.57;37.95;;;1.20;99.90;;;;;;5064816;28;20036;-73
2022/12/04 01:58:10;;;;;;;66.93;40.85;;;1.20;99.90;;;;;;5062152;28;20060;-74
2022/12/04 02:00:38;;;;;;;63.50;38.42;;;1.20;99.90;;;;;;5063129;28;20045;-73
2022/12/04 02:03:04;;;;;;;65.15;40.22;;;1.20;99.90;;;;;;5062282;28;20087;-73
2022/12/04 02:05:29;;;;;;;67.57;41.65;;;1.30;99.90;;;;;;5066127;28;20044;-73
2022/12/04 02:07:58;;;;;;;64.88;38.55;;;1.30;99.90;;;;;;5049321;28;20048;-73
2022/12/04 02:10:46;;;;;;;64.95;39.25;;;1.30;99.90;;;;;;5063972;28;20525;-73
2022/12/04 02:13:32;;;;;;;67.43;39.92;;;1.30;99.90;;;;;;5059076;28;20116;-69
2022/12/04 02:16:13;;;;;;;63.33;38.35;;;1.30;99.90;;;;;;5095670;28;20060;-74
2022/12/04 02:19:17;;;;;;;64.82;37.20;;;1.20;99.90;;;;;;5064561;28;20039;-73
2022/12/04 02:21:46;;;;;;;65.88;37.00;;;1.20;99.90;;;;;;5048596;28;20495;-73
2022/12/04 02:24:25;;;;;;;63.40;38.55;;;1.20;99.90;;;;;;5063339;28;20063;-73
2022/12/04 02:27:02;;;;;;;70.35;39.75;;;1.20;99.90;;;;;;5084395;28;20044;-74
2022/12/04 02:29:28;;;;;;;69.18;40.72;;;1.20;99.90;;;;;;5050009;28;20037;-74
2022/12/04 02:32:20;;;;;;;69.68;40.20;;;1.20;99.90;;;;;;5049145;28;20582;-74
2022/12/04 02:34:51;;;;;;;66.53;38.70;;;1.20;99.90;;;;;;5050599;28;20041;-73
2022/12/04 02:37:45;;;;;;;69.45;39.85;;;1.20;99.90;;;;;;5055872;28;20041;-73
2022/12/04 02:40:22;;;;;;;67.55;39.58;;;1.30;99.90;;;;;;5091458;27;20717;-74
2022/12/04 02:43:02;;;;;;;65.10;38.72;;;1.30;99.90;;;;;;5095186;28;20127;-74
2022/12/04 02:45:35;;;;;;;68.03;39.00;;;1.30;99.90;;;;;;5050964;28;20503;-74
2022/12/04 02:48:03;;;;;;;71.68;41.13;;;1.30;99.90;;;;;;5060783;28;20037;-74
2022/12/04 02:50:33;;;;;;;67.22;40.78;;;1.30;99.90;;;;;;5056181;28;20054;-74
2022/12/04 02:53:04;;;;;;;67.15;40.90;;;1.30;99.90;;;;;;5060555;28;20045;-74
2022/12/04 02:55:36;;;;;;;68.88;41.45;;;1.30;99.90;;;;;;5061597;28;20094;-74
2022/12/04 02:58:13;;;;;;;68.50;42.00;;;1.20;99.90;;;;;;5072879;28;20064;-73
2022/12/04 03:00:42;;;;;;;68.70;39.63;;;1.30;99.90;;;;;;5056767;28;20060;-74
2022/12/04 03:03:15;;;;;;;66.13;40.63;;;1.20;99.90;;;;;;5061229;28;20437;-74
2022/12/04 03:05:47;;;;;;;68.93;39.47;;;1.20;99.90;;;;;;5055704;28;20052;-74
2022/12/04 03:08:17;;;;;;;65.78;36.63;;;1.20;99.90;;;;;;5067894;28;20080;-74
2022/12/04 03:10:48;;;;;;;69.60;40.00;;;1.20;99.90;;;;;;5076948;28;20036;-74
2022/12/04 03:13:26;;;;;;;69.60;40.63;;;1.20;99.90;;;;;;5063465;28;20479;-74
2022/12/04 03:16:02;;;;;;;67.32;39.42;;;1.20;99.90;;;;;;5079131;28;20047;-74
2022/12/04 03:18:34;;;;;;;68.13;40.13;;;1.20;99.90;;;;;;5048118;28;20048;-74
2022/12/04 03:21:08;;;;;;;69.43;39.83;;;1.20;99.90;;;;;;5053858;28;20048;-74
2022/12/04 03:23:41;;;;;;;68.70;40.83;;;1.20;99.90;;;;;;5058281;28;20142;-73
2022/12/04 03:26:21;;;;;;;68.18;41.38;;;1.20;99.90;;;;;;5083565;28;20076;-74
2022/12/04 03:29:07;;;;;;;72.82;40.53;;;1.20;99.90;;;;;;5087363;28;20126;-73
2022/12/04 03:31:57;;;;;;;68.38;39.38;;;1.20;99.90;;;;;;5051771;28;20039;-74
2022/12/04 03:34:36;;;;;;;71.85;40.10;;;1.20;99.90;;;;;;5060095;28;20068;-74
2022/12/04 03:37:09;;;;;;;71.60;40.00;;;1.20;99.90;;;;;;5059998;28;20475;-74
2022/12/04 03:39:42;;;;;;;69.60;39.70;;;1.20;99.90;;;;;;5057735;28;20041;-74
2022/12/04 03:42:22;;;;;;;69.45;40.63;;;1.20;99.90;;;;;;5061634;28;20043;-74
2022/12/04 03:45:21;;;;;;;68.10;40.92;;;1.20;99.90;;;;;;5061698;28;20048;-74
2022/12/04 03:48:10;;;;;;;68.55;41.28;;;1.20;99.90;;;;;;5049887;28;20048;-74
2022/12/04 03:50:41;;;;;;;71.47;41.13;;;1.10;99.90;;;;;;5058465;28;20040;-74
2022/12/04 03:53:23;;;;;;;67.78;39.25;;;1.10;99.90;;;;;;5057690;28;20053;-74
2022/12/04 03:55:57;;;;;;;69.53;41.20;;;1.20;99.90;;;;;;5062564;28;20040;-73
2022/12/04 03:58:28;;;;;;;67.88;40.08;;;1.20;99.90;;;;;;5055215;28;20057;-74
2022/12/04 04:00:56;;;;;;;68.50;40.75;;;1.10;99.90;;;;;;5062011;28;20067;-74
2022/12/04 04:03:30;;;;;;;72.80;42.08;;;1.10;99.90;;;;;;5066495;28;20075;-74
2022/12/04 04:06:03;;;;;;;70.15;41.13;;;1.10;99.90;;;;;;5059145;28;20519;-73
2022/12/04 04:08:33;;;;;;;71.47;39.88;;;1.10;99.90;;;;;;5059351;28;20124;-74
2022/12/04 04:11:08;;;;;;;64.30;39.28;;;1.10;99.90;;;;;;5060828;28;20094;-73
2022/12/04 04:25:09;;;;;;;68.10;38.40;;;1.00;99.90;;;;;;5057558;28;20040;-74
2022/12/04 04:27:35;;;;;;;67.35;39.22;;;1.00;99.90;;;;;;5065092;28;20139;-73
2022/12/04 04:30:01;;;;;;;69.18;38.83;;;1.00;99.90;;;;;;5058616;28;20148;-73
2022/12/04 04:32:41;;;;;;;70.22;41.28;;;1.10;99.90;;;;;;5057277;28;20594;-74
2022/12/04 04:35:18;;;;;;;66.35;39.97;;;1.10;99.90;;;;;;5097411;28;20087;-74
2022/12/04 04:37:50;;;;;;;;;;;1.10;99.90;;;;;;5092404;28;20052;-74
2022/12/04 04:40:29;;;;;;;64.05;36.10;;;1.00;99.90;;;;;;5062280;28;19968;-74
2022/12/04 04:43:18;;;;;;;65.18;37.08;;;1.10;99.90;;;;;;5065018;28;20048;-74
2022/12/04 04:46:08;;;;;;;70.05;38.78;;;1.10;99.90;;;;;;5068656;28;20084;-74
2022/12/04 04:48:44;;;;;;;62.00;36.63;;;1.10;99.90;;;;;;5061008;28;20527;-74
2022/12/04 04:51:11;;;;;;;66.80;38.88;;;1.10;99.90;;;;;;5051787;28;20059;-74
2022/12/04 04:53:48;;;;;;;67.73;39.60;;;1.00;99.90;;;;;;5063665;28;20055;-74
2022/12/04 04:56:14;;;;;;;67.45;38.85;;;1.10;99.90;;;;;;5049556;28;20303;-74
2022/12/04 04:58:41;;;;;;;69.20;40.55;;;1.00;99.90;;;;;;5056154;28;20045;-74
2022/12/04 05:01:13;;;;;;;68.03;38.58;;;1.00;99.90;;;;;;5064268;28;20090;-74
2022/12/04 05:03:39;;;;;;;68.30;38.78;;;1.00;99.90;;;;;;5060108;28;20044;-74
2022/12/04 05:06:05;;;;;;;67.05;37.80;;;1.10;99.90;;;;;;5056066;28;20731;-74
2022/12/04 05:08:32;;;;;;;65.28;39.42;;;1.00;99.90;;;;;;5065718;28;20479;-74
2022/12/04 05:10:57;;;;;;;69.18;40.42;;;1.00;99.90;;;;;;5055485;28;20048;-74
2022/12/04 05:13:23;;;;;;;65.10;38.13;;;1.00;99.90;;;;;;5058730;28;20045;-74
2022/12/04 05:16:00;;;;;;;69.80;40.15;;;1.00;99.90;;;;;;5064149;28;20047;-71
2022/12/04 05:18:26;;;;;;;62.53;37.83;;;1.00;99.90;;;;;;5068806;28;20063;-73
2022/12/04 05:20:52;;;;;;;67.88;38.53;;;1.00;99.90;;;;;;5060554;28;20044;-73
2022/12/04 05:23:18;;;;;;;68.75;40.40;;;1.10;99.90;;;;;;5061529;28;20120;-73
2022/12/04 05:25:44;;;;;;;69.47;38.17;;;1.10;99.90;;;;;;5061358;28;20044;-73
2022/12/04 05:28:10;;;;;;;67.82;39.92;;;1.10;99.90;;;;;;5065347;28;20040;-73
2022/12/04 05:30:35;;;;;;;67.07;39.60;;;1.10;99.90;;;;;;5066655;28;20543;-74
2022/12/04 05:33:01;;;;;;;68.47;40.63;;;1.10;99.90;;;;;;5088228;28;20669;-73
2022/12/04 05:35:27;;;;;;;68.93;38.72;;;1.10;99.90;;;;;;5061679;28;20490;-73
2022/12/04 05:37:53;;;;;;;63.67;38.35;;;1.00;99.90;;;;;;5073377;28;20055;-74
2022/12/04 05:40:19;;;;;;;65.90;38.30;;;1.00;99.90;;;;;;5094372;28;20045;-74
2022/12/04 05:42:44;;;;;;;69.40;38.90;;;1.00;99.90;;;;;;5057825;28;20059;-73
2022/12/04 05:45:10;;;;;;;67.75;40.92;;;1.00;99.90;;;;;;5053246;28;20052;-73
2022/12/04 05:47:41;;;;;;;63.63;37.85;;;1.00;99.90;;;;;;5064021;28;20033;-73
2022/12/04 05:50:07;;;;;;;66.03;38.85;;;1.00;99.90;;;;;;5065404;28;20052;-73
2022/12/04 05:52:33;;;;;;;64.80;38.05;;;1.00;99.90;;;;;;5068595;28;20498;-73
2022/12/04 05:54:59;;;;;;;67.35;37.72;;;1.00;99.90;;;;;;5083364;28;20335;-74
2022/12/04 05:57:24;;;;;;;65.07;37.15;;;1.00;99.90;;;;;;5064855;28;20388;-73
2022/12/04 05:59:50;;;;;;;65.05;37.20;;;1.00;99.90;;;;;;5057736;28;20041;-73
2022/12/04 06:02:16;;;;;;;65.70;38.35;;;1.10;99.90;;;;;;5058483;28;20428;-73
2022/12/04 06:04:42;;;;;;;68.03;38.70;;;1.00;99.90;;;;;;5061389;28;20102;-73
2022/12/04 06:07:09;;;;;;;66.90;38.53;;;1.00;99.90;;;;;;5049862;28;20056;-73
2022/12/04 06:09:34;;;;;;;65.32;38.45;;;1.00;99.90;;;;;;5067054;28;20045;-73
2022/12/04 06:12:00;;;;;;;67.90;38.28;;;1.00;99.90;;;;;;5067424;28;20040;-73
2022/12/04 06:14:26;;;;;;;62.35;35.85;;;1.00;99.90;;;;;;5063845;28;20048;-73
2022/12/04 06:16:52;;;;;;;63.50;37.97;;;1.00;99.90;;;;;;5065196;28;20043;-73
2022/12/04 06:19:19;;;;;;;66.22;37.72;;;1.00;99.90;;;;;;5064921;28;20384;-73
2022/12/04 06:21:47;;;;;;;69.15;39.25;;;1.00;99.90;;;;;;5066449;28;20044;-73
2022/12/04 06:24:17;;;;;;;67.00;36.83;;;1.00;99.90;;;;;;5052627;28;20053;-73
2022/12/04 06:26:42;;;;;;;66.35;38.60;;;1.00;99.90;;;;;;5083826;28;20044;-73
2022/12/04 06:29:10;;;;;;;63.58;36.28;;;1.00;99.90;;;;;;5052247;28;20411;-74
2022/12/04 06:31:36;;;;;;;66.53;38.20;;;1.00;99.90;;;;;;5064288;28;20127;-73
2022/12/04 06:34:03;;;;;;;61.45;36.83;;;0.90;99.90;;;;;;5057029;28;20041;-73
2022/12/04 06:36:29;;;;;;;64.10;37.17;;;0.90;99.90;;;;;;5063487;28;20514;-73
2022/12/04 06:38:56;;;;;;;62.40;37.05;;;0.90;99.90;;;;;;5059086;28;20040;-73
2022/12/04 06:41:23;;;;;;;67.38;34.97;;;1.00;99.90;;;;;;5068719;28;20044;-73
2022/12/04 06:43:50;;;;;;;64.18;35.85;;;0.90;99.90;;;;;;5080902;28;20097;-73
2022/12/04 06:46:22;;;;;;;62.42;37.67;;;0.90;99.90;;;;;;5057641;28;20041;-73
2022/12/04 06:48:49;;;;;;;66.05;36.78;;;0.90;99.90;;;;;;5062207;28;20076;-73
2022/12/04 06:51:32;;;;;;;64.30;36.60;;;0.90;99.90;;;;;;5069274;28;20095;-73
2022/12/04 06:53:58;;;;;;;65.32;36.95;;;0.90;99.90;;;;;;5051520;28;20053;-74
2022/12/04 06:56:27;;;;;;;68.43;37.05;;;0.90;99.90;;;;;;5062088;28;20053;-73
2022/12/04 06:58:55;;;;;;;63.67;37.15;;;0.90;99.90;;;;;;5059147;28;20082;-73
2022/12/04 07:01:26;;;;;;;69.20;37.38;;;0.90;99.90;;;;;;5059900;28;20043;-73
2022/12/04 07:03:53;;;;;;;69.13;39.33;;;0.80;99.90;;;;;;5062545;28;20036;-73
2022/12/04 07:06:27;;;;;;;67.85;36.97;;;0.90;99.90;;;;;;5063811;28;20140;-73
2022/12/04 07:08:58;;;;;;;65.88;36.80;;;0.90;99.90;;;;;;5095846;28;20133;-73
2022/12/04 07:11:24;;;;;;;65.97;37.70;;;0.90;99.90;;;;;;5065157;28;20499;-73
2022/12/04 07:13:51;;;;;;;64.00;36.15;;;0.90;99.90;;;;;;5059160;28;20072;-73
2022/12/04 07:16:19;;;;;;;70.18;39.08;;;0.90;99.90;;;;;;5059946;28;21014;-73
2022/12/04 07:18:45;;;;;;;64.22;37.60;;;0.90;99.90;;;;;;5058415;28;20059;-73
2022/12/04 07:21:15;;;;;;;66.97;37.25;;;0.90;99.90;;;;;;5065776;28;20491;-73
2022/12/04 07:23:41;;;;;;;65.53;39.13;;;0.90;99.90;;;;;;5053779;28;20498;-74
2022/12/04 07:26:09;;;;;;;67.18;37.33;;;1.00;99.90;;;;;;5050046;28;20128;-73
2022/12/04 07:28:36;;;;;;;68.75;36.95;;;1.00;99.90;;;;;;5061393;28;20175;-73
2022/12/04 07:31:09;;;;;;;67.60;36.10;;;1.00;99.90;;;;;;5046844;28;20075;-74
2022/12/04 07:33:36;;;;;;;66.78;38.38;;;1.00;99.90;;;;;;5046951;28;20037;-73
2022/12/04 07:36:04;;;;;;;67.77;37.33;;;1.00;99.90;;;;;;5060141;28;20111;-73
2022/12/04 07:38:31;;;;;;;70.22;38.08;;;1.00;99.90;;;;;;5064575;28;20041;-73
2022/12/04 07:40:58;;;;;;;65.70;37.20;;;1.00;99.90;;;;;;5068932;28;20273;-73
2022/12/04 07:43:24;;;;;;;68.13;38.45;;;1.00;99.90;;;;;;5062002;28;20772;-73
2022/12/04 07:45:50;;;;;;;67.88;37.35;;;1.00;99.90;;;;;;5065699;28;20044;-73
2022/12/04 07:48:16;;;;;;;65.78;37.20;;;1.00;99.90;;;;;;5075388;28;20060;-73
2022/12/04 07:50:42;;;;;;;63.75;36.75;;;1.00;99.90;;;;;;5062153;28;20044;-73
2022/12/04 07:53:08;;;;;;;65.25;36.97;;;1.10;99.90;;;;;;5047693;28;20041;-73
2022/12/04 07:55:33;;;;;;;63.33;35.55;;;1.10;99.90;;;;;;5064427;28;20040;-73
2022/12/04 07:57:59;;;;;;;68.60;37.38;;;1.10;99.90;;;;;;5066429;28;20076;-73
2022/12/04 08:00:25;;;;;;;62.85;37.28;;;1.10;99.90;;;;;;5063821;28;20395;-73
2022/12/04 08:02:50;;;;;;;67.78;37.88;;;1.10;99.90;;;;;;5071001;28;20053;-73
2022/12/04 08:05:17;;;;;;;71.45;39.42;;;1.10;99.90;;;;;;5057805;28;20048;-73
2022/12/04 08:07:42;;;;;;;67.80;39.65;;;1.10;99.90;;;;;;5062782;28;20037;-75
2022/12/04 08:10:08;;;;;;;64.43;36.88;;;1.10;99.90;;;;;;5076012;28;20074;-73
2022/12/04 08:12:34;;;;;;;66.07;38.40;;;1.10;99.90;;;;;;5063589;28;20045;-71
2022/12/04 08:15:00;;;;;;;71.65;40.22;;;1.10;99.90;;;;;;5056894;28;20055;-71
2022/12/04 08:17:26;;;;;;;70.00;39.10;;;1.10;99.90;;;;;;5062446;28;20054;-70
2022/12/04 08:19:51;;;;;;;71.55;39.58;;;1.10;99.90;;;;;;5063817;28;20045;-72
2022/12/04 08:22:17;;;;;;;91.88;47.75;;;1.10;99.90;;;;;;5065889;28;20440;-73
2022/12/04 08:24:42;;;;;;;73.90;41.85;;;1.10;99.90;;;;;;5062545;28;20036;-73
2022/12/04 08:27:08;;;;;;;68.82;39.85;;;1.20;99.90;;;;;;5066640;28;20390;-75
2022/12/04 08:29:34;;;;;;;68.55;39.38;;;1.20;99.90;;;;;;5066619;28;20049;-72
2022/12/04 08:32:00;;;;;;;73.75;40.55;;;1.20;99.90;;;;;;5065505;28;20067;-73
2022/12/04 08:34:25;;;;;;;68.90;37.05;;;1.20;99.90;;;;;;5065150;28;20479;-72
2022/12/04 08:36:51;;;;;;;71.20;38.63;;;1.20;99.90;;;;;;5061832;28;20397;-75
2022/12/04 08:39:16;;;;;;;70.57;38.05;;;1.20;99.90;;;;;;5064386;28;20751;-75
2022/12/04 08:41:42;;;;;;;71.80;37.75;;;1.20;99.90;;;;;;5065553;28;20041;-74
2022/12/04 08:44:08;;;;;;;65.72;38.65;;;1.20;99.90;;;;;;5083939;28;20044;-73
2022/12/04 08:46:34;;;;;;;70.18;37.38;;;1.20;99.90;;;;;;5069300;28;20049;-73
2022/12/04 08:49:00;;;;;;;69.38;39.97;;;1.20;99.90;;;;;;5067685;28;20123;-73
2022/12/04 08:51:28;;;;;;;69.78;39.03;;;1.20;99.90;;;;;;5067438;28;20047;-73
2022/12/04 08:53:56;;;;;;;75.00;39.13;;;1.20;99.90;;;;;;5048953;28;20131;-73
2022/12/04 08:56:23;;;;;;;67.95;37.88;;;1.30;99.90;;;;;;5065347;28;20064;-70
2022/12/04 08:58:48;;;;;;;68.50;39.25;;;1.30;99.90;;;;;;5061967;28;20056;-70
2022/12/04 09:01:15;;;;;;;68.90;38.60;;;1.30;99.90;;;;;;5066741;28;20040;-70
2022/12/04 09:03:41;;;;;;;67.95;38.40;;;1.30;99.90;;;;;;5077766;28;20135;-70
2022/12/04 09:06:09;;;;;;;66.82;38.67;;;1.40;99.90;;;;;;5071640;28;20507;-70
2022/12/04 09:08:36;;;;;;;72.00;39.88;;;1.40;99.90;;;;;;5077711;28;20044;-70
2022/12/04 09:11:17;;;;;;;70.33;39.33;;;1.40;99.90;;;;;;5066726;28;20032;-70
2022/12/04 09:13:43;;;;;;;70.25;40.65;;;1.40;99.90;;;;;;5070283;28;20402;-71
2022/12/04 09:16:12;;;;;;;65.97;36.57;;;1.40;99.90;;;;;;5082231;28;20044;-71
2022/12/04 09:18:38;;;;;;;70.53;38.92;;;1.40;99.90;;;;;;5069526;28;20094;-70
2022/12/04 09:21:07;;;;;;;70.10;40.00;;;1.50;99.90;;;;;;5068628;28;20068;-70
2022/12/04 09:23:35;;;;;;;69.05;38.63;;;1.50;99.90;;;;;;5103380;28;20075;-70
2022/12/04 09:26:01;;;;;;;70.85;38.17;;;1.50;99.90;;;;;;5069965;28;20052;-70
2022/12/04 09:28:28;;;;;;;70.97;38.53;;;1.50;99.90;;;;;;5075073;28;20049;-70
2022/12/04 09:31:04;;;;;;;66.60;36.83;;;1.60;99.90;;;;;;5072167;28;20053;-70
2022/12/04 09:33:33;;;;;;;67.00;36.08;;;1.60;99.90;;;;;;5076343;28;20040;-70
2022/12/04 09:36:01;;;;;;;70.47;39.78;;;1.60;99.90;;;;;;5075459;28;20101;-70
2022/12/04 09:38:27;;;;;;;;;;;1.60;99.90;;;;;;5067932;28;20041;-70
2022/12/04 09:40:55;;;;;;;65.13;37.72;;;1.60;99.90;;;;;;5067815;28;19920;-70
2022/12/04 09:43:26;;;;;;;;;;;1.60;99.90;;;;;;5067332;28;20044;-70
2022/12/04 09:45:57;;;;;;;68.15;37.38;;;1.60;99.90;;;;;;5067281;28;19921;-70
2022/12/04 09:48:32;;;;;;;71.75;40.55;;;1.60;99.90;;;;;;5065253;28;20124;-70
2022/12/04 09:51:00;;;;;;;66.25;37.90;;;1.60;99.90;;;;;;5064880;28;20131;-70
2022/12/04 09:53:59;;;;;;;70.25;39.33;;;1.70;99.90;;;;;;5066393;28;20044;-69
2022/12/04 09:56:29;;;;;;;65.65;38.72;;;1.70;99.90;;;;;;5066806;28;20137;-70
2022/12/04 09:59:13;;;;;;;72.32;39.83;;;1.70;99.90;;;;;;5068235;28;20507;-70
2022/12/04 10:01:55;;;;;;;68.50;39.20;;;1.70;99.90;;;;;;5067598;28;20040;-70
2022/12/04 10:04:21;;;;;;;68.15;39.83;;;1.70;99.90;;;;;;5082799;28;20063;-69
2022/12/04 10:07:09;;;;;;;69.75;39.80;;;1.70;99.90;;;;;;5066858;28;20040;-70
2022/12/04 10:10:05;;;;;;;68.20;38.67;;;1.80;99.90;;;;;;5067374;28;20040;-69
2022/12/04 10:12:49;;;;;;;64.28;38.05;;;1.80;99.90;;;;;;5054633;28;20422;-69
2022/12/04 10:15:38;;;;;;;69.07;38.47;;;1.80;99.90;;;;;;5064125;28;20111;-70
2022/12/04 10:18:23;;;;;;;69.32;38.88;;;1.80;99.90;;;;;;5069435;28;20127;-70
2022/12/04 10:21:10;;;;;;;70.00;38.38;;;1.80;99.90;;;;;;5064426;28;20102;-70
2022/12/04 10:23:51;;;;;;;66.53;37.35;;;1.80;99.90;;;;;;5067107;28;20075;-70
2022/12/04 10:26:19;;;;;;;62.58;35.60;;;1.80;99.90;;;;;;5067233;28;20533;-72
2022/12/04 10:28:54;;;;;;;64.20;37.53;;;1.80;99.90;;;;;;5101894;28;20392;-71
2022/12/04 10:31:19;;;;;;;64.97;38.50;;;1.90;99.90;;;;;;5066744;28;20148;-71
2022/12/04 10:34:12;;;;;;;66.88;39.42;;;2.00;99.90;;;;;;5062844;28;20545;-73
2022/12/04 10:36:40;;;;;;;69.95;41.35;;;2.10;99.90;;;;;;5068408;28;20478;-72
2022/12/04 10:39:20;;;;;;;64.10;37.95;;;2.10;99.90;;;;;;5066530;28;20104;-70
2022/12/04 10:42:10;;;;;;;57.10;36.03;;;2.10;99.90;;;;;;5061398;28;20043;-77
2022/12/04 10:44:36;;;;;;;57.22;36.08;;;2.20;99.90;;;;;;5064899;28;20055;-73
2022/12/04 10:47:04;;;;;;;58.50;36.00;;;2.10;99.90;;;;;;5058037;28;20044;-72
2022/12/04 10:49:35;;;;;;;55.55;35.33;;;2.10;99.90;;;;;;5068884;28;20079;-72
2022/12/04 10:52:02;;;;;;;53.80;33.38;;;2.10;99.90;;;;;;5065234;28;20098;-71
2022/12/04 10:54:47;;;;;;;51.88;32.47;;;2.10;99.90;;;;;;5066641;28;20080;-71
2022/12/04 10:57:14;;;;;;;53.47;32.95;;;2.10;99.90;;;;;;5058546;28;20052;-71
2022/12/04 10:59:47;;;;;;;50.17;32.47;;;2.10;99.90;;;;;;5053395;28;20048;-71
2022/12/04 11:02:29;;;;;;;50.85;30.67;;;2.10;99.90;;;;;;5060153;28;20298;-72
2022/12/04 11:05:03;;;;;;;50.65;30.85;;;2.10;99.90;;;;;;5063758;28;20044;-73
2022/12/04 11:07:46;;;;;;;49.45;30.85;;;2.20;99.90;;;;;;5060034;28;20075;-72
2022/12/04 11:10:23;;;;;;;48.50;30.98;;;2.10;99.90;;;;;;5067108;28;20040;-71
2022/12/04 11:13:19;;;;;;;53.72;32.85;;;2.20;99.90;;;;;;5054181;28;20760;-71
2022/12/04 11:15:53;;;;;;;48.50;30.08;;;2.20;99.90;;;;;;5067250;28;20547;-70
2022/12/04 11:18:27;;;;;;;45.00;28.48;;;2.20;99.90;;;;;;5056782;28;20048;-72
2022/12/04 11:21:04;;;;;;;47.17;29.50;;;2.30;99.90;;;;;;5095563;28;20048;-72
2022/12/04 11:23:41;;;;;;;45.67;29.37;;;2.30;99.90;;;;;;5052743;28;20076;-72
2022/12/04 11:26:08;;;;;;;44.92;28.38;;;2.30;99.90;;;;;;5060727;28;20311;-72
2022/12/04 11:28:35;;;;;;;42.67;28.33;;;2.30;99.90;;;;;;5065713;28;20591;-71
2022/12/04 11:31:03;;;;;;;43.60;29.30;;;2.30;99.90;;;;;;5079605;28;20079;-71
2022/12/04 11:33:34;;;;;;;42.45;27.55;;;2.40;99.90;;;;;;5062901;28;20043;-72
2022/12/04 11:36:03;;;;;;;40.88;26.73;;;2.40;99.90;;;;;;5060335;28;20883;-72
2022/12/04 11:38:33;;;;;;;41.28;27.23;;;2.40;99.90;;;;;;5065020;28;20090;-72
2022/12/04 11:41:05;;;;;;;38.20;24.58;;;2.40;99.90;;;;;;5065677;28;20060;-70
2022/12/04 11:43:34;;;;;;;36.75;25.80;;;2.40;99.90;;;;;;5058947;28;20044;-71
2022/12/04 11:46:03;;;;;;;40.38;26.55;;;2.50;99.90;;;;;;5097457;28;20044;-72
2022/12/04 11:48:31;;;;;;;40.30;26.23;;;2.50;99.90;;;;;;5059040;28;20044;-69
2022/12/04 11:51:10;;;;;;;37.92;25.90;;;2.50;99.90;;;;;;5064861;28;20052;-72
2022/12/04 11:53:49;;;;;;;37.50;25.30;;;2.50;99.90;;;;;;5062268;28;20049;-70
2022/12/04 11:56:27;;;;;;;39.08;24.95;;;2.50;99.90;;;;;;5061433;28;20051;-69
2022/12/04 11:59:21;;;;;;;37.90;24.45;;;2.60;99.90;;;;;;5052514;28;20135;-73
2022/12/04 12:01:55;;;;;;;37.58;24.42;;;2.60;99.90;;;;;;5066081;28;20051;-70
2022/12/04 12:04:42;;;;;;;43.55;26.40;;;2.50;99.90;;;;;;5061950;28;20072;-69
2022/12/04 12:07:39;;;;;;;41.22;25.75;;;2.50;99.90;;;;;;5059642;28;20495;-71
2022/12/04 12:10:32;;;;;;;41.33;24.67;;;2.60;99.90;;;;;;5056372;28;20940;-72
2022/12/04 12:13:16;;;;;;;39.67;25.27;;;2.60;99.90;;;;;;5062350;28;20128;-71
2022/12/04 12:16:08;;;;;;;38.45;24.80;;;2.60;99.90;;;;;;5058224;28;20053;-72
2022/12/04 12:19:01;;;;;;;38.75;24.13;;;2.60;99.90;;;;;;5063856;28;20064;-71
2022/12/04 12:21:50;;;;;;;38.90;25.20;;;2.60;99.90;;;;;;5068360;28;20052;-75
2022/12/04 12:24:15;;;;;;;38.10;25.08;;;2.60;99.90;;;;;;5068086;28;20040;-68
2022/12/04 12:26:56;;;;;;;37.70;25.45;;;2.60;99.90;;;;;;5063888;28;20043;-69
2022/12/04 12:29:56;;;;;;;44.85;27.77;;;2.60;99.90;;;;;;5070266;28;20044;-71
2022/12/04 12:32:34;;;;;;;41.80;26.15;;;2.60;99.90;;;;;;5067963;28;20040;-73
2022/12/04 12:35:00;;;;;;;40.08;25.63;;;2.60;99.90;;;;;;5058073;28;20207;-72
2022/12/04 12:37:38;;;;;;;39.85;26.30;;;2.60;99.90;;;;;;5065817;28;20044;-71
2022/12/04 12:40:12;;;;;;;42.65;26.27;;;2.60;99.90;;;;;;5062313;28;20055;-72
2022/12/04 12:42:54;;;;;;;44.70;26.77;;;2.60;99.90;;;;;;5075970;28;20056;-73
2022/12/04 12:46:00;;;;;;;41.88;26.40;;;2.60;99.90;;;;;;5068779;28;20470;-71
2022/12/04 12:48:36;;;;;;;42.53;26.48;;;2.60;99.90;;;;;;5076121;28;20050;-74
2022/12/04 12:51:39;;;;;;;44.20;26.63;;;2.60;99.90;;;;;;5071750;28;20174;-72
2022/12/04 12:54:28;;;;;;;43.97;27.33;;;2.60;99.90;;;;;;5076447;28;20047;-72
2022/12/04 12:57:09;;;;;;;39.40;25.02;;;2.50;99.90;;;;;;5073494;28;20062;-72
2022/12/04 12:59:39;;;;;;;44.88;26.20;;;2.50;99.90;;;;;;5082257;28;20043;-71
2022/12/04 13:02:15;;;;;;;42.63;27.92;;;2.50;99.90;;;;;;5072559;28;20039;-71
2022/12/04 13:04:45;;;;;;;42.53;27.92;;;2.50;99.90;;;;;;5070114;28;20076;-72
2022/12/04 13:07:16;;;;;;;42.28;26.77;;;2.50;99.90;;;;;;5077660;28;20044;-70
2022/12/04 13:09:50;;;;;;;43.75;28.05;;;2.50;99.90;;;;;;5065449;28;20043;-71
2022/12/04 13:12:18;;;;;;;44.97;27.30;;;2.60;99.90;;;;;;5067275;28;20256;-72